sensor_id;sensor_type;location;lat;lon;timestamp;P1;durP1;ratioP1;P2;durP2;ratioP2
15889;SDS011;8043;49.388;12.128;2023-09-07T00:09:21;5.80;;;3.50;;
15889;SDS011;8043;49.388;12.128;2023-09-07T00:14:24;4.58;;;2.80;;
15889;SDS011;8043;49.388;12.128;2023-09-07T00:19:26;5.87;;;3.72;;
15889;SDS011;8043;49.388;12.128;2023-09-07T00:24:30;5.12;;;3.37;;
15889;SDS011;8043;49.388;12.128;2023-09-07T00:29:32;7.53;;;2.93;;
15889;SDS011;8043;49.388;12.128;2023-09-07T00:34:36;5.65;;;3.33;;
15889;SDS011;8043;49.388;12.128;2023-09-07T00:39:38;6.70;;;3.22;;
15889;SDS011;8043;49.388;12.128;2023-09-07T00:44:40;4.80;;;3.02;;
15889;SDS011;8043;49.388;12.128;2023-09-07T00:49:42;5.53;;;3.50;;
15889;SDS011;8043;49.388;12.128;2023-09-07T00:54:45;5.40;;;3.42;;
15889;SDS011;8043;49.388;12.128;2023-09-07T00:59:47;9.40;;;3.47;;
15889;SDS011;8043;49.388;12.128;2023-09-07T01:04:50;7.67;;;4.00;;
15889;SDS011;8043;49.388;12.128;2023-09-07T01:09:56;10.93;;;3.83;;
15889;SDS011;8043;49.388;12.128;2023-09-07T01:14:57;10.60;;;3.37;;
15889;SDS011;8043;49.388;12.128;2023-09-07T01:20:01;8.68;;;4.42;;
15889;SDS011;8043;49.388;12.128;2023-09-07T01:25:10;7.03;;;3.62;;
15889;SDS011;8043;49.388;12.128;2023-09-07T01:30:12;11.65;;;4.03;;
15889;SDS011;8043;49.388;12.128;2023-09-07T01:35:15;5.58;;;3.67;;
15889;SDS011;8043;49.388;12.128;2023-09-07T01:40:18;5.63;;;3.30;;
15889;SDS011;8043;49.388;12.128;2023-09-07T01:45:21;8.30;;;3.40;;
15889;SDS011;8043;49.388;12.128;2023-09-07T01:50:24;6.90;;;3.75;;
15889;SDS011;8043;49.388;12.128;2023-09-07T01:55:30;6.67;;;3.62;;
15889;SDS011;8043;49.388;12.128;2023-09-07T02:00:35;7.55;;;4.00;;
15889;SDS011;8043;49.388;12.128;2023-09-07T02:05:39;5.97;;;4.03;;
15889;SDS011;8043;49.388;12.128;2023-09-07T02:10:41;5.80;;;3.72;;
15889;SDS011;8043;49.388;12.128;2023-09-07T02:15:43;10.13;;;3.92;;
15889;SDS011;8043;49.388;12.128;2023-09-07T02:20:45;6.05;;;3.85;;
15889;SDS011;8043;49.388;12.128;2023-09-07T02:25:48;8.23;;;3.92;;
15889;SDS011;8043;49.388;12.128;2023-09-07T02:30:50;7.45;;;3.92;;
15889;SDS011;8043;49.388;12.128;2023-09-07T02:35:53;5.08;;;3.72;;
15889;SDS011;8043;49.388;12.128;2023-09-07T02:40:55;6.70;;;4.22;;
15889;SDS011;8043;49.388;12.128;2023-09-07T02:45:58;9.25;;;3.77;;
15889;SDS011;8043;49.388;12.128;2023-09-07T02:51:00;5.00;;;3.95;;
15889;SDS011;8043;49.388;12.128;2023-09-07T03:01:07;5.58;;;3.77;;
15889;SDS011;8043;49.388;12.128;2023-09-07T03:06:10;8.33;;;4.10;;
15889;SDS011;8043;49.388;12.128;2023-09-07T03:11:13;6.15;;;3.90;;
15889;SDS011;8043;49.388;12.128;2023-09-07T03:16:15;5.22;;;4.03;;
15889;SDS011;8043;49.388;12.128;2023-09-07T03:26:19;5.47;;;3.85;;
15889;SDS011;8043;49.388;12.128;2023-09-07T03:31:21;6.92;;;3.83;;
15889;SDS011;8043;49.388;12.128;2023-09-07T03:36:23;4.53;;;3.27;;
15889;SDS011;8043;49.388;12.128;2023-09-07T03:41:25;6.83;;;3.60;;
15889;SDS011;8043;49.388;12.128;2023-09-07T03:46:29;9.43;;;3.72;;
15889;SDS011;8043;49.388;12.128;2023-09-07T03:51:31;5.12;;;3.52;;
15889;SDS011;8043;49.388;12.128;2023-09-07T04:01:35;6.50;;;4.15;;
15889;SDS011;8043;49.388;12.128;2023-09-07T04:06:37;5.97;;;3.70;;
15889;SDS011;8043;49.388;12.128;2023-09-07T04:11:41;7.47;;;3.85;;
15889;SDS011;8043;49.388;12.128;2023-09-07T04:16:43;6.93;;;3.90;;
15889;SDS011;8043;49.388;12.128;2023-09-07T04:21:45;4.95;;;3.45;;
15889;SDS011;8043;49.388;12.128;2023-09-07T04:31:50;6.00;;;3.67;;
15889;SDS011;8043;49.388;12.128;2023-09-07T04:36:52;7.50;;;3.83;;
15889;SDS011;8043;49.388;12.128;2023-09-07T04:41:54;5.25;;;3.90;;
15889;SDS011;8043;49.388;12.128;2023-09-07T04:51:58;6.10;;;3.77;;
15889;SDS011;8043;49.388;12.128;2023-09-07T04:57:00;8.10;;;3.95;;
15889;SDS011;8043;49.388;12.128;2023-09-07T05:02:02;6.72;;;3.17;;
15889;SDS011;8043;49.388;12.128;2023-09-07T05:07:05;6.65;;;3.58;;
15889;SDS011;8043;49.388;12.128;2023-09-07T05:12:07;6.97;;;3.90;;
15889;SDS011;8043;49.388;12.128;2023-09-07T05:17:09;5.30;;;3.67;;
15889;SDS011;8043;49.388;12.128;2023-09-07T05:22:12;4.83;;;3.25;;
15889;SDS011;8043;49.388;12.128;2023-09-07T05:27:14;4.53;;;3.47;;
15889;SDS011;8043;49.388;12.128;2023-09-07T05:32:16;10.18;;;4.67;;
15889;SDS011;8043;49.388;12.128;2023-09-07T05:37:19;5.62;;;3.72;;
15889;SDS011;8043;49.388;12.128;2023-09-07T05:42:21;10.80;;;4.35;;
15889;SDS011;8043;49.388;12.128;2023-09-07T05:47:23;9.58;;;4.03;;
15889;SDS011;8043;49.388;12.128;2023-09-07T05:52:26;6.75;;;4.05;;
15889;SDS011;8043;49.388;12.128;2023-09-07T05:57:28;6.92;;;4.05;;
15889;SDS011;8043;49.388;12.128;2023-09-07T06:02:31;7.15;;;4.33;;
15889;SDS011;8043;49.388;12.128;2023-09-07T06:07:33;7.67;;;4.80;;
15889;SDS011;8043;49.388;12.128;2023-09-07T06:12:35;7.53;;;4.45;;
15889;SDS011;8043;49.388;12.128;2023-09-07T06:17:37;10.25;;;5.42;;
15889;SDS011;8043;49.388;12.128;2023-09-07T06:22:39;17.25;;;5.28;;
15889;SDS011;8043;49.388;12.128;2023-09-07T06:32:44;7.78;;;4.62;;
15889;SDS011;8043;49.388;12.128;2023-09-07T06:37:46;10.88;;;5.12;;
15889;SDS011;8043;49.388;12.128;2023-09-07T06:42:48;7.12;;;5.12;;
15889;SDS011;8043;49.388;12.128;2023-09-07T06:52:51;9.80;;;5.25;;
15889;SDS011;8043;49.388;12.128;2023-09-07T06:57:54;9.25;;;5.50;;
15889;SDS011;8043;49.388;12.128;2023-09-07T07:02:56;12.50;;;5.43;;
15889;SDS011;8043;49.388;12.128;2023-09-07T07:13:00;8.60;;;3.67;;
15889;SDS011;8043;49.388;12.128;2023-09-07T07:18:04;10.68;;;4.25;;
15889;SDS011;8043;49.388;12.128;2023-09-07T07:23:10;8.88;;;5.03;;
15889;SDS011;8043;49.388;12.128;2023-09-07T07:28:13;9.33;;;4.78;;
15889;SDS011;8043;49.388;12.128;2023-09-07T07:33:15;10.35;;;4.50;;
15889;SDS011;8043;49.388;12.128;2023-09-07T07:38:17;8.03;;;5.12;;
15889;SDS011;8043;49.388;12.128;2023-09-07T07:43:20;10.10;;;5.00;;
15889;SDS011;8043;49.388;12.128;2023-09-07T07:48:22;9.00;;;4.67;;
15889;SDS011;8043;49.388;12.128;2023-09-07T07:53:25;6.70;;;4.60;;
15889;SDS011;8043;49.388;12.128;2023-09-07T07:58:27;9.73;;;4.03;;
15889;SDS011;8043;49.388;12.128;2023-09-07T08:03:29;7.93;;;4.27;;
15889;SDS011;8043;49.388;12.128;2023-09-07T08:13:33;6.10;;;3.62;;
15889;SDS011;8043;49.388;12.128;2023-09-07T08:18:35;6.90;;;4.03;;
15889;SDS011;8043;49.388;12.128;2023-09-07T08:23:37;9.80;;;3.72;;
15889;SDS011;8043;49.388;12.128;2023-09-07T08:28:40;6.00;;;3.85;;
15889;SDS011;8043;49.388;12.128;2023-09-07T08:33:44;5.75;;;3.85;;
15889;SDS011;8043;49.388;12.128;2023-09-07T08:38:46;9.15;;;4.40;;
15889;SDS011;8043;49.388;12.128;2023-09-07T08:43:49;5.58;;;3.45;;
15889;SDS011;8043;49.388;12.128;2023-09-07T08:48:52;6.55;;;3.83;;
15889;SDS011;8043;49.388;12.128;2023-09-07T08:53:56;8.43;;;3.40;;
15889;SDS011;8043;49.388;12.128;2023-09-07T08:58:58;5.70;;;3.35;;
15889;SDS011;8043;49.388;12.128;2023-09-07T09:09:02;4.80;;;3.37;;
15889;SDS011;8043;49.388;12.128;2023-09-07T09:14:07;10.53;;;3.58;;
15889;SDS011;8043;49.388;12.128;2023-09-07T09:24:11;5.80;;;3.33;;
15889;SDS011;8043;49.388;12.128;2023-09-07T09:29:15;4.47;;;2.95;;
15889;SDS011;8043;49.388;12.128;2023-09-07T09:34:18;7.10;;;3.10;;
15889;SDS011;8043;49.388;12.128;2023-09-07T09:39:24;4.45;;;2.98;;
15889;SDS011;8043;49.388;12.128;2023-09-07T09:44:26;4.72;;;2.60;;
15889;SDS011;8043;49.388;12.128;2023-09-07T09:49:30;3.87;;;2.45;;
15889;SDS011;8043;49.388;12.128;2023-09-07T09:54:33;3.17;;;2.47;;
15889;SDS011;8043;49.388;12.128;2023-09-07T09:59:36;5.05;;;2.35;;
15889;SDS011;8043;49.388;12.128;2023-09-07T10:04:40;4.35;;;2.80;;
15889;SDS011;8043;49.388;12.128;2023-09-07T10:09:42;3.33;;;2.40;;
15889;SDS011;8043;49.388;12.128;2023-09-07T10:14:45;2.45;;;2.08;;
15889;SDS011;8043;49.388;12.128;2023-09-07T10:19:49;3.67;;;2.25;;
15889;SDS011;8043;49.388;12.128;2023-09-07T10:24:58;5.37;;;2.58;;
15889;SDS011;8043;49.388;12.128;2023-09-07T10:30:01;3.47;;;2.30;;
15889;SDS011;8043;49.388;12.128;2023-09-07T10:35:16;3.85;;;2.85;;
15889;SDS011;8043;49.388;12.128;2023-09-07T10:40:20;4.50;;;2.55;;
15889;SDS011;8043;49.388;12.128;2023-09-07T10:45:23;3.85;;;2.70;;
15889;SDS011;8043;49.388;12.128;2023-09-07T10:50:25;3.52;;;2.65;;
15889;SDS011;8043;49.388;12.128;2023-09-07T10:55:27;3.72;;;2.37;;
15889;SDS011;8043;49.388;12.128;2023-09-07T11:00:29;4.40;;;2.50;;
15889;SDS011;8043;49.388;12.128;2023-09-07T11:05:32;5.03;;;2.70;;
15889;SDS011;8043;49.388;12.128;2023-09-07T11:10:36;5.43;;;2.60;;
15889;SDS011;8043;49.388;12.128;2023-09-07T11:15:38;5.25;;;2.37;;
15889;SDS011;8043;49.388;12.128;2023-09-07T11:20:41;4.55;;;2.60;;
15889;SDS011;8043;49.388;12.128;2023-09-07T11:25:44;3.93;;;2.20;;
15889;SDS011;8043;49.388;12.128;2023-09-07T11:30:50;5.25;;;2.90;;
15889;SDS011;8043;49.388;12.128;2023-09-07T11:35:53;4.00;;;2.67;;
15889;SDS011;8043;49.388;12.128;2023-09-07T11:40:56;5.35;;;2.55;;
15889;SDS011;8043;49.388;12.128;2023-09-07T11:45:58;4.28;;;2.17;;
15889;SDS011;8043;49.388;12.128;2023-09-07T11:51:01;3.92;;;2.90;;
15889;SDS011;8043;49.388;12.128;2023-09-07T11:56:03;6.13;;;2.17;;
15889;SDS011;8043;49.388;12.128;2023-09-07T12:01:06;2.87;;;2.25;;
15889;SDS011;8043;49.388;12.128;2023-09-07T12:06:09;5.85;;;2.77;;
15889;SDS011;8043;49.388;12.128;2023-09-07T12:11:11;6.15;;;2.25;;
15889;SDS011;8043;49.388;12.128;2023-09-07T12:16:14;3.58;;;2.37;;
15889;SDS011;8043;49.388;12.128;2023-09-07T12:21:16;4.20;;;2.72;;
15889;SDS011;8043;49.388;12.128;2023-09-07T12:26:18;6.17;;;2.50;;
15889;SDS011;8043;49.388;12.128;2023-09-07T12:31:21;5.12;;;2.47;;
15889;SDS011;8043;49.388;12.128;2023-09-07T12:36:23;9.80;;;2.08;;
15889;SDS011;8043;49.388;12.128;2023-09-07T12:41:28;4.20;;;2.10;;
15889;SDS011;8043;49.388;12.128;2023-09-07T12:46:31;5.37;;;2.43;;
15889;SDS011;8043;49.388;12.128;2023-09-07T12:51:33;3.50;;;2.52;;
15889;SDS011;8043;49.388;12.128;2023-09-07T12:56:35;7.87;;;2.43;;
15889;SDS011;8043;49.388;12.128;2023-09-07T13:01:37;9.70;;;2.47;;
15889;SDS011;8043;49.388;12.128;2023-09-07T13:06:40;5.00;;;2.40;;
15889;SDS011;8043;49.388;12.128;2023-09-07T13:11:42;3.25;;;2.17;;
15889;SDS011;8043;49.388;12.128;2023-09-07T13:16:44;4.97;;;2.58;;
15889;SDS011;8043;49.388;12.128;2023-09-07T13:21:46;6.15;;;2.30;;
15889;SDS011;8043;49.388;12.128;2023-09-07T13:26:51;3.77;;;2.37;;
15889;SDS011;8043;49.388;12.128;2023-09-07T13:31:52;3.27;;;2.05;;
15889;SDS011;8043;49.388;12.128;2023-09-07T13:36:54;3.63;;;2.30;;
15889;SDS011;8043;49.388;12.128;2023-09-07T13:41:57;2.87;;;2.10;;
15889;SDS011;8043;49.388;12.128;2023-09-07T13:46:59;4.47;;;1.87;;
15889;SDS011;8043;49.388;12.128;2023-09-07T13:52:02;5.55;;;2.37;;
15889;SDS011;8043;49.388;12.128;2023-09-07T13:57:04;3.37;;;1.95;;
15889;SDS011;8043;49.388;12.128;2023-09-07T14:02:06;6.97;;;2.00;;
15889;SDS011;8043;49.388;12.128;2023-09-07T14:07:08;5.60;;;2.33;;
15889;SDS011;8043;49.388;12.128;2023-09-07T14:12:11;5.42;;;2.50;;
15889;SDS011;8043;49.388;12.128;2023-09-07T14:17:13;9.85;;;2.33;;
15889;SDS011;8043;49.388;12.128;2023-09-07T14:22:15;2.17;;;1.90;;
15889;SDS011;8043;49.388;12.128;2023-09-07T14:27:17;5.33;;;2.33;;
15889;SDS011;8043;49.388;12.128;2023-09-07T14:32:19;2.90;;;2.05;;
15889;SDS011;8043;49.388;12.128;2023-09-07T14:37:22;3.33;;;2.25;;
15889;SDS011;8043;49.388;12.128;2023-09-07T14:42:24;7.87;;;2.20;;
15889;SDS011;8043;49.388;12.128;2023-09-07T14:47:26;3.15;;;1.77;;
15889;SDS011;8043;49.388;12.128;2023-09-07T14:52:29;8.30;;;2.98;;
15889;SDS011;8043;49.388;12.128;2023-09-07T14:57:33;3.77;;;2.02;;
15889;SDS011;8043;49.388;12.128;2023-09-07T15:02:35;2.00;;;1.80;;
15889;SDS011;8043;49.388;12.128;2023-09-07T15:07:37;2.87;;;2.20;;
15889;SDS011;8043;49.388;12.128;2023-09-07T15:12:39;2.77;;;2.25;;
15889;SDS011;8043;49.388;12.128;2023-09-07T15:17:45;3.37;;;2.42;;
15889;SDS011;8043;49.388;12.128;2023-09-07T15:22:47;4.00;;;2.00;;
15889;SDS011;8043;49.388;12.128;2023-09-07T15:27:50;2.65;;;1.80;;
15889;SDS011;8043;49.388;12.128;2023-09-07T15:32:52;3.60;;;1.90;;
15889;SDS011;8043;49.388;12.128;2023-09-07T15:37:54;3.77;;;1.85;;
15889;SDS011;8043;49.388;12.128;2023-09-07T15:42:56;2.92;;;1.85;;
15889;SDS011;8043;49.388;12.128;2023-09-07T15:47:59;3.67;;;1.90;;
15889;SDS011;8043;49.388;12.128;2023-09-07T15:53:02;2.40;;;1.65;;
15889;SDS011;8043;49.388;12.128;2023-09-07T15:58:05;5.05;;;2.15;;
15889;SDS011;8043;49.388;12.128;2023-09-07T16:03:09;5.30;;;1.65;;
15889;SDS011;8043;49.388;12.128;2023-09-07T16:08:11;3.57;;;2.20;;
15889;SDS011;8043;49.388;12.128;2023-09-07T16:13:13;5.33;;;2.10;;
15889;SDS011;8043;49.388;12.128;2023-09-07T16:18:15;4.35;;;1.92;;
15889;SDS011;8043;49.388;12.128;2023-09-07T16:23:19;6.90;;;1.90;;
15889;SDS011;8043;49.388;12.128;2023-09-07T16:28:21;1.77;;;1.67;;
15889;SDS011;8043;49.388;12.128;2023-09-07T16:33:23;2.70;;;2.00;;
15889;SDS011;8043;49.388;12.128;2023-09-07T16:38:28;3.35;;;2.17;;
15889;SDS011;8043;49.388;12.128;2023-09-07T16:43:30;3.10;;;1.75;;
15889;SDS011;8043;49.388;12.128;2023-09-07T16:48:32;2.35;;;1.67;;
15889;SDS011;8043;49.388;12.128;2023-09-07T16:53:35;4.30;;;1.90;;
15889;SDS011;8043;49.388;12.128;2023-09-07T16:58:41;3.92;;;2.12;;
15889;SDS011;8043;49.388;12.128;2023-09-07T17:03:48;7.45;;;2.42;;
15889;SDS011;8043;49.388;12.128;2023-09-07T17:08:47;2.45;;;1.87;;
15889;SDS011;8043;49.388;12.128;2023-09-07T17:13:49;2.20;;;1.67;;
15889;SDS011;8043;49.388;12.128;2023-09-07T17:18:53;2.20;;;1.80;;
15889;SDS011;8043;49.388;12.128;2023-09-07T17:23:55;3.35;;;2.25;;
15889;SDS011;8043;49.388;12.128;2023-09-07T17:28:57;3.47;;;1.75;;
15889;SDS011;8043;49.388;12.128;2023-09-07T17:33:59;4.87;;;2.05;;
15889;SDS011;8043;49.388;12.128;2023-09-07T17:39:01;9.25;;;2.30;;
15889;SDS011;8043;49.388;12.128;2023-09-07T17:44:04;7.80;;;2.03;;
15889;SDS011;8043;49.388;12.128;2023-09-07T17:49:06;2.75;;;2.02;;
15889;SDS011;8043;49.388;12.128;2023-09-07T17:54:09;5.35;;;2.37;;
15889;SDS011;8043;49.388;12.128;2023-09-07T17:59:11;3.77;;;2.20;;
15889;SDS011;8043;49.388;12.128;2023-09-07T18:09:15;3.47;;;2.53;;
15889;SDS011;8043;49.388;12.128;2023-09-07T18:14:17;2.47;;;1.62;;
15889;SDS011;8043;49.388;12.128;2023-09-07T18:19:19;6.85;;;2.30;;
15889;SDS011;8043;49.388;12.128;2023-09-07T18:29:23;3.10;;;2.30;;
15889;SDS011;8043;49.388;12.128;2023-09-07T18:39:27;3.63;;;2.57;;
15889;SDS011;8043;49.388;12.128;2023-09-07T18:44:34;5.67;;;2.70;;
15889;SDS011;8043;49.388;12.128;2023-09-07T18:49:33;3.37;;;2.20;;
15889;SDS011;8043;49.388;12.128;2023-09-07T18:54:35;4.78;;;2.37;;
15889;SDS011;8043;49.388;12.128;2023-09-07T18:59:37;5.17;;;2.15;;
15889;SDS011;8043;49.388;12.128;2023-09-07T19:04:40;5.37;;;2.70;;
15889;SDS011;8043;49.388;12.128;2023-09-07T19:09:42;4.53;;;2.40;;
15889;SDS011;8043;49.388;12.128;2023-09-07T19:14:44;3.50;;;1.98;;
15889;SDS011;8043;49.388;12.128;2023-09-07T19:24:50;4.95;;;2.42;;
15889;SDS011;8043;49.388;12.128;2023-09-07T19:29:54;3.72;;;2.47;;
15889;SDS011;8043;49.388;12.128;2023-09-07T19:34:57;4.28;;;2.77;;
15889;SDS011;8043;49.388;12.128;2023-09-07T19:40:00;4.05;;;2.72;;
15889;SDS011;8043;49.388;12.128;2023-09-07T19:45:02;4.60;;;2.00;;
15889;SDS011;8043;49.388;12.128;2023-09-07T19:50:05;3.62;;;1.95;;
15889;SDS011;8043;49.388;12.128;2023-09-07T19:55:08;5.80;;;2.72;;
15889;SDS011;8043;49.388;12.128;2023-09-07T20:00:11;6.65;;;3.08;;
15889;SDS011;8043;49.388;12.128;2023-09-07T20:15:19;4.45;;;2.67;;
15889;SDS011;8043;49.388;12.128;2023-09-07T20:25:23;5.83;;;2.80;;
15889;SDS011;8043;49.388;12.128;2023-09-07T20:30:25;6.40;;;2.62;;
15889;SDS011;8043;49.388;12.128;2023-09-07T20:35:27;6.83;;;2.30;;
15889;SDS011;8043;49.388;12.128;2023-09-07T20:40:33;8.53;;;2.50;;
15889;SDS011;8043;49.388;12.128;2023-09-07T20:50:40;12.88;;;4.17;;
15889;SDS011;8043;49.388;12.128;2023-09-07T20:55:42;8.08;;;3.45;;
15889;SDS011;8043;49.388;12.128;2023-09-07T21:00:44;5.75;;;2.98;;
15889;SDS011;8043;49.388;12.128;2023-09-07T21:10:50;3.95;;;2.70;;
15889;SDS011;8043;49.388;12.128;2023-09-07T21:15:54;7.87;;;3.40;;
15889;SDS011;8043;49.388;12.128;2023-09-07T21:20:56;4.33;;;2.37;;
15889;SDS011;8043;49.388;12.128;2023-09-07T21:25:58;4.42;;;2.72;;
15889;SDS011;8043;49.388;12.128;2023-09-07T21:31:01;3.30;;;2.22;;
15889;SDS011;8043;49.388;12.128;2023-09-07T21:36:03;6.17;;;2.95;;
15889;SDS011;8043;49.388;12.128;2023-09-07T21:41:06;5.03;;;2.72;;
15889;SDS011;8043;49.388;12.128;2023-09-07T21:46:08;5.37;;;2.58;;
15889;SDS011;8043;49.388;12.128;2023-09-07T21:51:10;3.17;;;2.27;;
15889;SDS011;8043;49.388;12.128;2023-09-07T21:56:12;6.37;;;2.20;;
15889;SDS011;8043;49.388;12.128;2023-09-07T22:01:14;3.35;;;2.60;;
15889;SDS011;8043;49.388;12.128;2023-09-07T22:11:18;4.10;;;2.40;;
15889;SDS011;8043;49.388;12.128;2023-09-07T22:16:20;9.50;;;2.70;;
15889;SDS011;8043;49.388;12.128;2023-09-07T22:21:22;4.95;;;2.37;;
15889;SDS011;8043;49.388;12.128;2023-09-07T22:26:25;11.33;;;3.20;;
15889;SDS011;8043;49.388;12.128;2023-09-07T22:31:27;6.65;;;2.80;;
15889;SDS011;8043;49.388;12.128;2023-09-07T22:36:29;4.28;;;2.98;;
15889;SDS011;8043;49.388;12.128;2023-09-07T22:41:31;9.07;;;3.27;;
15889;SDS011;8043;49.388;12.128;2023-09-07T22:46:33;4.50;;;2.42;;
15889;SDS011;8043;49.388;12.128;2023-09-07T22:51:36;3.77;;;2.47;;
15889;SDS011;8043;49.388;12.128;2023-09-07T22:56:38;4.97;;;2.92;;
15889;SDS011;8043;49.388;12.128;2023-09-07T23:01:40;4.43;;;2.70;;
15889;SDS011;8043;49.388;12.128;2023-09-07T23:06:42;5.10;;;3.55;;
15889;SDS011;8043;49.388;12.128;2023-09-07T23:11:45;3.58;;;2.62;;
15889;SDS011;8043;49.388;12.128;2023-09-07T23:16:50;9.65;;;3.00;;
15889;SDS011;8043;49.388;12.128;2023-09-07T23:21:52;4.78;;;2.98;;
15889;SDS011;8043;49.388;12.128;2023-09-07T23:26:54;4.53;;;2.98;;
15889;SDS011;8043;49.388;12.128;2023-09-07T23:31:57;5.35;;;2.80;;
15889;SDS011;8043;49.388;12.128;2023-09-07T23:36:59;7.12;;;3.00;;
15889;SDS011;8043;49.388;12.128;2023-09-07T23:42:01;6.00;;;3.30;;
15889;SDS011;8043;49.388;12.128;2023-09-07T23:47:04;4.12;;;2.65;;
15889;SDS011;8043;49.388;12.128;2023-09-07T23:57:08;5.80;;;3.45;;
